Time;durP1;ratioP1;P1;durP2;ratioP2;P2;SDS_P1;SDS_P2;PMS_P1;PMS_P2;Temp;Humidity;BMP_temperature;BMP_pressure;BME280_temperature;BME280_humidity;BME280_pressure;Samples;Min_cycle;Max_cycle;Signal;HPM_P1;HPM_P2
2022/05/19 00:00:02;;;;;;;20.68;10.82;;;14.70;76.10;;;;;;1819906;79;21127;-58
2022/05/19 00:02:33;;;;;;;18.27;11.03;;;14.70;76.20;;;;;;1819964;78;21107;-58
2022/05/19 00:05:03;;;;;;;16.60;10.75;;;14.70;76.10;;;;;;1819865;78;21159;-57
2022/05/19 00:07:32;;;;;;;17.57;11.70;;;14.70;76.10;;;;;;1819984;79;21051;-58
2022/05/19 00:10:01;;;;;;;18.27;11.43;;;14.70;76.10;;;;;;1819830;78;21021;-57
2022/05/19 00:12:31;;;;;;;19.12;11.78;;;14.70;76.00;;;;;;1819928;79;21021;-57
2022/05/19 00:15:00;;;;;;;18.48;11.00;;;14.60;75.90;;;;;;1819872;78;21041;-58
2022/05/19 00:17:29;;;;;;;19.42;11.97;;;14.70;76.00;;;;;;1819977;79;21550;-57
2022/05/19 00:19:59;;;;;;;18.90;11.80;;;14.70;75.80;;;;;;1827999;77;21135;-58
2022/05/19 00:22:28;;;;;;;16.90;11.10;;;14.70;75.70;;;;;;1842026;77;21615;-57
2022/05/19 00:24:58;;;;;;;15.78;11.55;;;14.70;75.20;;;;;;1842029;78;21116;-58
2022/05/19 00:27:27;;;;;;;18.90;11.08;;;14.70;75.60;;;;;;1842040;77;21042;-58
2022/05/19 00:29:57;;;;;;;19.85;12.20;;;14.70;75.40;;;;;;1842058;78;21115;-58
2022/05/19 00:32:27;;;;;;;19.02;11.68;;;14.70;75.30;;;;;;1841979;77;21013;-57
2022/05/19 00:34:56;;;;;;;17.60;11.93;;;14.70;75.30;;;;;;1841991;77;21042;-58
2022/05/19 00:37:25;;;;;;;18.40;11.45;;;14.70;75.30;;;;;;1841928;78;21050;-58
2022/05/19 00:39:55;;;;;;;17.23;12.23;;;14.70;75.20;;;;;;1841989;78;21077;-57
2022/05/19 00:45:20;;;;;;;17.48;12.00;;;14.70;75.00;;;;;;1842128;78;21046;-58
2022/05/19 00:47:52;;;;;;;25.02;13.30;;;14.70;74.90;;;;;;1841977;77;21034;-58
2022/05/19 00:50:24;;;;;;;24.85;14.73;;;14.70;75.00;;;;;;1842006;77;21026;-58
2022/05/19 00:52:56;;;;;;;22.55;15.53;;;14.70;74.90;;;;;;1842097;77;21112;-58
2022/05/19 00:55:31;;;;;;;25.17;15.58;;;14.70;74.70;;;;;;1842212;77;21433;-57
2022/05/19 00:58:02;;;;;;;24.87;14.95;;;14.80;74.60;;;;;;1842047;77;21585;-58
2022/05/19 01:00:32;;;;;;;24.75;15.63;;;14.70;74.60;;;;;;1841867;78;21065;-58
2022/05/19 01:03:02;;;;;;;22.55;14.90;;;14.70;74.50;;;;;;1842030;77;21119;-58
2022/05/19 01:05:41;;;;;;;23.05;15.85;;;14.70;74.50;;;;;;1842000;78;21046;-58
2022/05/19 01:08:25;;;;;;;24.50;15.53;;;14.60;74.50;;;;;;1842076;78;21069;-57
2022/05/19 01:10:56;;;;;;;24.70;15.30;;;14.60;74.70;;;;;;1842206;78;21038;-58
2022/05/19 01:13:31;;;;;;;26.15;16.48;;;14.60;74.90;;;;;;1842076;77;21029;-57
2022/05/19 01:16:01;;;;;;;23.02;14.78;;;14.60;75.00;;;;;;1842195;77;21034;-57
2022/05/19 01:18:31;;;;;;;22.50;15.45;;;14.60;75.00;;;;;;1842085;77;21049;-58
2022/05/19 01:21:01;;;;;;;21.07;13.53;;;14.60;75.00;;;;;;1843309;76;21069;-58
2022/05/19 01:23:42;;;;;;;23.92;16.07;;;14.60;75.30;;;;;;1844542;78;21575;-57
2022/05/19 01:26:29;;;;;;;19.50;14.33;;;14.60;75.40;;;;;;1844640;77;21053;-57
2022/05/19 01:28:59;;;;;;;24.32;14.73;;;14.60;76.00;;;;;;1844623;77;21058;-58
2022/05/19 01:31:34;;;;;;;22.17;14.58;;;14.60;75.50;;;;;;1844568;77;21046;-58
2022/05/19 01:34:05;;;;;;;23.67;16.52;;;14.60;75.60;;;;;;1843979;77;21105;-57
2022/05/19 01:36:35;;;;;;;22.02;14.80;;;14.60;75.70;;;;;;1844631;78;21053;-58
2022/05/19 01:39:13;;;;;;;20.90;15.85;;;14.60;75.70;;;;;;1844767;78;21050;-58
2022/05/19 01:41:48;;;;;;;23.95;15.05;;;14.60;75.90;;;;;;1844099;77;21069;-58
2022/05/19 01:44:48;;;;;;;22.15;13.93;;;14.60;76.00;;;;;;1844506;77;21512;-58
2022/05/19 01:47:43;;;;;;;23.70;15.35;;;14.60;75.90;;;;;;1844720;77;21046;-58
2022/05/19 01:50:21;;;;;;;22.25;15.25;;;14.60;76.10;;;;;;1844690;77;21128;-58
2022/05/19 01:52:56;;;;;;;22.50;14.70;;;14.60;76.20;;;;;;1844362;77;21041;-58
2022/05/19 01:55:34;;;;;;;24.55;14.50;;;14.60;76.10;;;;;;1844162;77;21120;-58
2022/05/19 01:58:24;;;;;;;21.70;15.00;;;14.60;76.10;;;;;;1844519;77;21108;-59
2022/05/19 02:00:56;;;;;;;22.98;14.85;;;14.60;76.10;;;;;;1844568;77;21493;-57
2022/05/19 02:03:40;;;;;;;19.95;14.87;;;14.60;76.70;;;;;;1844582;78;21128;-57
2022/05/19 02:06:08;;;;;;;21.52;13.65;;;14.60;76.20;;;;;;1844364;78;21066;-58
2022/05/19 02:08:41;;;;;;;19.57;13.70;;;14.50;76.20;;;;;;1844584;78;21041;-59
2022/05/19 02:11:13;;;;;;;22.52;13.85;;;14.50;76.30;;;;;;1844703;78;21042;-58
2022/05/19 02:13:43;;;;;;;22.90;14.50;;;14.50;76.40;;;;;;1844702;78;21476;-58
2022/05/19 02:16:14;;;;;;;21.00;13.32;;;14.50;76.50;;;;;;1844591;78;21045;-57
2022/05/19 02:18:45;;;;;;;19.82;13.75;;;14.50;76.70;;;;;;1844608;77;21080;-58
2022/05/19 02:21:16;;;;;;;19.52;13.45;;;14.50;76.70;;;;;;1834416;76;21081;-57
2022/05/19 02:23:46;;;;;;;18.15;12.90;;;14.60;76.80;;;;;;1819916;78;21081;-58
2022/05/19 02:26:15;;;;;;;19.67;13.62;;;14.60;77.40;;;;;;1819843;79;21507;-58
2022/05/19 02:28:50;;;;;;;20.80;13.68;;;14.60;76.90;;;;;;1819795;79;21108;-58
2022/05/19 02:31:19;;;;;;;;;;;14.60;76.70;;;;;;1821704;78;21061;-58
2022/05/19 02:33:48;;;;;;;19.12;12.40;;;14.60;77.10;;;;;;1819851;78;20426;-58
2022/05/19 02:36:17;;;;;;;21.37;13.93;;;14.60;76.60;;;;;;1819882;79;21018;-57
2022/05/19 02:38:47;;;;;;;18.55;13.88;;;14.60;76.70;;;;;;1820002;79;21045;-57
2022/05/19 02:41:16;;;;;;;24.07;12.85;;;14.60;76.70;;;;;;1819915;79;21115;-58
2022/05/19 02:43:46;;;;;;;16.17;11.75;;;14.60;76.70;;;;;;1819775;78;21115;-58
2022/05/19 02:46:15;;;;;;;18.67;12.28;;;14.60;76.70;;;;;;1819916;78;21131;-57
2022/05/19 02:48:44;;;;;;;16.45;11.90;;;14.60;76.70;;;;;;1819791;78;21049;-57
2022/05/19 02:51:14;;;;;;;16.50;11.35;;;14.70;76.90;;;;;;1819792;78;21081;-58
2022/05/19 02:53:44;;;;;;;17.10;10.10;;;14.70;76.90;;;;;;1819823;78;21037;-58
2022/05/19 02:56:13;;;;;;;17.42;11.08;;;14.70;76.90;;;;;;1819919;79;21622;-58
2022/05/19 02:58:43;;;;;;;17.80;10.68;;;14.70;77.10;;;;;;1819926;78;21065;-58
2022/05/19 03:01:12;;;;;;;17.65;10.53;;;14.70;77.00;;;;;;1819993;79;21124;-58
2022/05/19 03:03:42;;;;;;;11.80;9.40;;;14.70;77.00;;;;;;1819825;79;21115;-58
2022/05/19 03:06:11;;;;;;;25.45;11.10;;;14.80;77.00;;;;;;1819845;78;21053;-58
2022/05/19 03:08:40;;;;;;;18.23;10.93;;;14.80;76.90;;;;;;1819863;79;21025;-58
2022/05/19 03:11:10;;;;;;;15.30;9.78;;;14.80;77.00;;;;;;1819757;79;21049;-58
2022/05/19 03:13:39;;;;;;;19.77;9.93;;;14.80;77.00;;;;;;1819827;78;21041;-58
2022/05/19 03:16:09;;;;;;;15.03;9.55;;;14.80;77.00;;;;;;1819768;78;21045;-57
2022/05/19 03:18:39;;;;;;;20.25;10.13;;;14.80;77.00;;;;;;1819912;78;21468;-57
2022/05/19 03:21:08;;;;;;;12.73;8.70;;;14.90;77.50;;;;;;1819704;77;21053;-58
2022/05/19 03:23:38;;;;;;;14.03;8.13;;;14.90;77.10;;;;;;1819828;78;21061;-58
2022/05/19 03:26:07;;;;;;;14.63;9.60;;;14.80;77.10;;;;;;1819776;79;21115;-57
2022/05/19 03:28:36;;;;;;;18.05;10.72;;;14.90;77.20;;;;;;1819710;79;21236;-58
2022/05/19 03:31:06;;;;;;;15.60;9.40;;;14.90;77.10;;;;;;1819737;79;21050;-58
2022/05/19 03:33:35;;;;;;;13.93;8.93;;;15.00;77.00;;;;;;1819751;79;21061;-58
2022/05/19 03:36:07;;;;;;;12.53;8.65;;;15.00;76.90;;;;;;1819885;78;21096;-58
2022/05/19 03:38:37;;;;;;;16.17;9.05;;;15.00;76.70;;;;;;1819888;78;21124;-58
2022/05/19 03:41:06;;;;;;;20.55;8.98;;;15.00;76.80;;;;;;1819849;78;21077;-58
2022/05/19 03:43:35;;;;;;;12.53;8.93;;;15.00;76.70;;;;;;1819839;79;21077;-57
2022/05/19 03:46:05;;;;;;;12.58;8.88;;;15.00;76.70;;;;;;1819971;79;21081;-58
2022/05/19 03:48:38;;;;;;;12.05;9.13;;;15.00;76.70;;;;;;1820008;79;21179;-58
2022/05/19 03:51:13;;;;;;;14.93;8.48;;;14.90;76.50;;;;;;1819808;78;21042;-58
2022/05/19 03:53:42;;;;;;;12.75;8.25;;;14.90;76.70;;;;;;1820130;79;21049;-58
2022/05/19 03:56:12;;;;;;;13.30;8.35;;;14.90;76.80;;;;;;1819852;79;21062;-58
2022/05/19 03:58:41;;;;;;;12.43;7.45;;;14.90;76.70;;;;;;1819894;78;21025;-57
2022/05/19 04:01:10;;;;;;;18.25;7.85;;;14.90;76.70;;;;;;1819832;79;21053;-57
2022/05/19 04:03:40;;;;;;;10.75;6.90;;;14.80;76.60;;;;;;1819811;78;21119;-58
2022/05/19 04:06:09;;;;;;;11.50;7.53;;;14.90;76.90;;;;;;1819867;78;21111;-58
2022/05/19 04:08:40;;;;;;;8.83;5.10;;;14.80;77.10;;;;;;1820011;78;21054;-58
2022/05/19 04:11:09;;;;;;;11.43;6.65;;;14.80;77.10;;;;;;1819900;79;21030;-57
2022/05/19 04:13:39;;;;;;;10.75;6.90;;;14.80;77.30;;;;;;1819868;79;21049;-58
2022/05/19 04:16:08;;;;;;;11.25;5.17;;;14.70;77.30;;;;;;1819812;78;21049;-58
2022/05/19 04:18:38;;;;;;;11.43;5.80;;;14.70;77.40;;;;;;1819928;78;21111;-58
2022/05/19 04:21:08;;;;;;;9.58;6.67;;;14.70;77.40;;;;;;1819831;79;21058;-58
2022/05/19 04:23:37;;;;;;;10.72;6.33;;;14.70;77.40;;;;;;1819696;77;21112;-57
2022/05/19 04:26:07;;;;;;;10.13;5.20;;;14.80;77.60;;;;;;1819793;79;21532;-58
2022/05/19 04:28:37;;;;;;;5.83;4.00;;;14.80;77.10;;;;;;1819955;79;21069;-58
2022/05/19 04:31:06;;;;;;;10.70;4.47;;;14.80;76.60;;;;;;1819858;78;21045;-58
2022/05/19 04:33:35;;;;;;;9.28;4.80;;;14.80;76.50;;;;;;1819831;79;21069;-58
2022/05/19 04:36:05;;;;;;;8.68;4.78;;;14.70;76.60;;;;;;1820043;79;21120;-58
2022/05/19 04:38:35;;;;;;;9.88;4.75;;;14.80;76.60;;;;;;1819933;79;21093;-57
2022/05/19 04:41:06;;;;;;;6.55;4.15;;;14.90;76.70;;;;;;1819819;78;21065;-58
2022/05/19 04:43:35;;;;;;;6.65;4.30;;;14.90;75.90;;;;;;1819842;79;21081;-59
2022/05/19 04:46:04;;;;;;;5.78;3.47;;;14.90;75.90;;;;;;1820062;79;21189;-59
2022/05/19 04:48:35;;;;;;;6.70;3.40;;;14.90;75.80;;;;;;1819868;78;21022;-59
2022/05/19 04:51:05;;;;;;;4.08;2.77;;;15.00;75.20;;;;;;1819900;78;21061;-59
2022/05/19 04:53:35;;;;;;;8.80;3.35;;;15.00;74.90;;;;;;1819825;79;21093;-59
2022/05/19 04:56:05;;;;;;;4.97;3.00;;;15.00;74.90;;;;;;1819747;79;21025;-59
2022/05/19 04:58:34;;;;;;;7.20;3.20;;;15.00;74.50;;;;;;1819838;78;21049;-59
2022/05/19 05:01:05;;;;;;;7.03;3.02;;;15.00;74.40;;;;;;1819790;78;21065;-59
2022/05/19 05:03:35;;;;;;;6.45;3.52;;;15.00;74.50;;;;;;1819740;78;21174;-59
2022/05/19 05:06:04;;;;;;;7.55;2.95;;;15.10;74.40;;;;;;1819785;79;21049;-58
2022/05/19 05:08:33;;;;;;;6.40;3.33;;;15.20;74.40;;;;;;1819932;79;21492;-56
2022/05/19 05:11:02;;;;;;;3.80;2.90;;;15.10;74.30;;;;;;1819851;79;21022;-59
2022/05/19 05:13:32;;;;;;;5.10;2.92;;;15.20;74.10;;;;;;1820051;79;21050;-58
2022/05/19 05:16:02;;;;;;;7.87;2.62;;;15.20;73.90;;;;;;1819838;78;21108;-58
2022/05/19 05:18:31;;;;;;;5.53;3.10;;;15.20;73.90;;;;;;1819810;78;21120;-59
2022/05/19 05:21:03;;;;;;;6.17;2.37;;;15.30;73.50;;;;;;1819865;79;21061;-58
2022/05/19 05:23:32;;;;;;;4.50;2.62;;;15.30;73.20;;;;;;1834065;77;21543;-58
2022/05/19 05:26:03;;;;;;;9.63;3.20;;;15.30;73.10;;;;;;1844542;77;21062;-58
2022/05/19 05:28:32;;;;;;;7.58;2.98;;;15.40;73.20;;;;;;1844643;77;21111;-59
2022/05/19 05:31:02;;;;;;;6.83;2.67;;;15.50;73.00;;;;;;1844518;77;21077;-58
2022/05/19 05:33:31;;;;;;;8.53;2.75;;;15.50;72.40;;;;;;1844511;77;21066;-58
2022/05/19 05:36:00;;;;;;;9.93;2.72;;;15.50;72.00;;;;;;1844460;77;21477;-59
2022/05/19 05:38:29;;;;;;;10.08;3.37;;;15.60;72.40;;;;;;1844480;77;21124;-58
2022/05/19 05:41:02;;;;;;;5.40;3.02;;;15.70;71.90;;;;;;1844424;78;21045;-58
2022/05/19 05:43:30;;;;;;;6.33;2.80;;;15.90;71.80;;;;;;1844510;77;21039;-59
2022/05/19 05:46:11;;;;;;;5.75;2.85;;;16.00;71.70;;;;;;1844564;77;21045;-59
2022/05/19 05:49:00;;;;;;;4.12;2.75;;;16.10;71.10;;;;;;1844708;77;21042;-57
2022/05/19 05:51:30;;;;;;;7.85;3.62;;;16.10;70.20;;;;;;1865839;76;21104;-57
2022/05/19 05:53:59;;;;;;;7.78;4.35;;;16.20;70.40;;;;;;1865910;77;21038;-57
2022/05/19 05:56:29;;;;;;;5.72;2.72;;;16.30;70.50;;;;;;1865838;77;21100;-57
2022/05/19 05:58:58;;;;;;;9.23;2.42;;;16.50;70.00;;;;;;1865767;77;21153;-57
2022/05/19 06:01:28;;;;;;;4.42;2.62;;;16.50;68.80;;;;;;1865724;77;21100;-57
2022/05/19 06:03:57;;;;;;;7.65;3.27;;;16.60;68.90;;;;;;1865789;77;21532;-56
2022/05/19 06:06:26;;;;;;;3.08;2.60;;;16.60;69.10;;;;;;1865640;76;21042;-58
2022/05/19 06:08:56;;;;;;;8.20;2.75;;;16.60;68.00;;;;;;1865894;77;21112;-57
2022/05/19 06:11:25;;;;;;;9.13;3.25;;;16.70;67.60;;;;;;1865700;76;21104;-57
2022/05/19 06:13:55;;;;;;;7.90;2.90;;;16.70;67.80;;;;;;1865999;76;21038;-57
2022/05/19 06:16:24;;;;;;;7.30;2.42;;;16.70;68.00;;;;;;1865850;77;21018;-57
2022/05/19 06:18:54;;;;;;;9.78;2.40;;;16.90;67.40;;;;;;1865725;77;21034;-57
2022/05/19 06:21:23;;;;;;;4.33;2.52;;;17.10;67.40;;;;;;1865893;76;21015;-57
2022/05/19 06:26:48;;;;;;;6.20;2.65;;;17.30;66.20;;;;;;1787697;80;21146;-58
2022/05/19 06:29:17;;;;;;;5.45;2.87;;;17.30;66.10;;;;;;1787754;80;21048;-58
2022/05/19 06:31:46;;;;;;;5.25;2.67;;;17.30;65.30;;;;;;1787750;80;21029;-58
2022/05/19 06:34:15;;;;;;;4.37;2.62;;;17.20;65.10;;;;;;1787669;80;21060;-58
2022/05/19 06:36:45;;;;;;;4.75;2.30;;;17.10;62.90;;;;;;1787716;80;21084;-58
2022/05/19 06:39:19;;;;;;;7.95;2.52;;;16.90;62.90;;;;;;1787687;79;21088;-58
2022/05/19 06:42:01;;;;;;;6.25;2.60;;;16.70;63.10;;;;;;1786422;79;21173;-57
2022/05/19 06:44:39;;;;;;;3.47;2.22;;;16.50;63.50;;;;;;1787750;80;21068;-58
2022/05/19 06:47:16;;;;;;;6.35;3.77;;;16.40;64.10;;;;;;1787738;79;21052;-58
2022/05/19 06:49:55;;;;;;;2.15;1.70;;;16.30;65.00;;;;;;1787677;80;21123;-57
2022/05/19 06:52:28;;;;;;;4.30;2.60;;;16.20;65.40;;;;;;1787599;79;21161;-58
2022/05/19 06:55:00;;;;;;;5.28;2.92;;;16.20;65.60;;;;;;1787904;80;21068;-57
2022/05/19 06:57:31;;;;;;;4.87;2.83;;;16.30;65.60;;;;;;1787751;80;21130;-58
2022/05/19 07:00:00;;;;;;;12.00;3.20;;;16.40;65.80;;;;;;1787619;79;21056;-57
2022/05/19 07:02:30;;;;;;;5.50;2.90;;;16.50;65.50;;;;;;1787697;79;21036;-58
2022/05/19 07:04:59;;;;;;;9.88;4.50;;;16.60;65.60;;;;;;1787589;80;21044;-57
2022/05/19 07:07:29;;;;;;;4.42;3.15;;;16.80;66.20;;;;;;1787704;79;21052;-57
2022/05/19 07:09:58;;;;;;;8.10;3.55;;;16.90;65.20;;;;;;1787571;79;21138;-57
2022/05/19 07:12:28;;;;;;;22.60;3.35;;;17.10;64.90;;;;;;1787601;80;21089;-57
2022/05/19 07:14:57;;;;;;;10.32;4.00;;;17.10;63.90;;;;;;1787695;79;21076;-58
2022/05/19 07:17:27;;;;;;;8.18;2.77;;;17.10;63.60;;;;;;1787629;80;21065;-57
2022/05/19 07:22:43;;;;;;;8.88;3.20;;;16.60;63.20;;;;;;1787758;80;21131;-57
2022/05/19 07:25:13;;;;;;;6.58;3.40;;;16.50;64.00;;;;;;1795228;78;21113;-58
2022/05/19 07:27:43;;;;;;;6.47;2.92;;;16.30;64.30;;;;;;1821200;79;21119;-56
2022/05/19 07:30:12;;;;;;;8.28;3.37;;;16.30;63.20;;;;;;1821327;79;21044;-57
2022/05/19 07:32:42;;;;;;;10.10;2.95;;;16.10;62.20;;;;;;1821175;79;21112;-56
2022/05/19 07:35:14;;;;;;;9.03;3.05;;;16.00;62.80;;;;;;1821176;79;21045;-56
2022/05/19 07:37:44;;;;;;;4.58;3.12;;;15.80;63.20;;;;;;1821168;79;21468;-56
2022/05/19 07:40:13;;;;;;;8.18;4.72;;;15.70;64.50;;;;;;1821121;79;21034;-56
2022/05/19 07:42:43;;;;;;;8.05;4.62;;;15.60;65.30;;;;;;1820959;79;21017;-56
2022/05/19 07:45:14;;;;;;;6.20;4.42;;;15.50;66.00;;;;;;1821124;79;21053;-57
2022/05/19 07:47:44;;;;;;;5.42;3.87;;;15.40;66.70;;;;;;1821192;78;21108;-57
2022/05/19 07:50:14;;;;;;;6.58;4.15;;;15.50;67.60;;;;;;1821182;78;21124;-57
2022/05/19 07:52:44;;;;;;;13.58;4.90;;;15.60;69.70;;;;;;1821143;78;21018;-57
2022/05/19 07:55:13;;;;;;;8.23;4.42;;;15.90;69.70;;;;;;1821248;79;21107;-57
2022/05/19 07:57:43;;;;;;;11.50;3.85;;;16.10;67.40;;;;;;1821155;78;21025;-56
2022/05/19 08:00:12;;;;;;;8.38;4.45;;;16.30;67.80;;;;;;1819256;78;21473;-58
2022/05/19 08:02:41;;;;;;;6.00;3.83;;;16.50;65.80;;;;;;1823202;78;21570;-57
2022/05/19 08:05:11;;;;;;;4.53;3.50;;;16.70;62.40;;;;;;1823608;77;21033;-59
2022/05/19 08:07:40;;;;;;;7.22;3.47;;;16.70;64.10;;;;;;1823428;78;21184;-58
2022/05/19 08:10:26;;;;;;;6.50;3.27;;;16.70;65.00;;;;;;1823596;78;21195;-57
2022/05/19 08:15:47;;;;;;;4.58;2.67;;;16.70;64.60;;;;;;1823486;78;21061;-57
2022/05/19 08:18:19;;;;;;;4.22;3.35;;;16.60;63.40;;;;;;1785134;79;21027;-58
2022/05/19 08:20:51;;;;;;;9.05;3.72;;;16.60;63.70;;;;;;1820356;79;21080;-59
2022/05/19 08:23:23;;;;;;;5.42;2.98;;;16.60;64.40;;;;;;1820355;79;21043;-59
2022/05/19 08:25:53;;;;;;;9.95;3.70;;;16.70;63.30;;;;;;1820611;79;21575;-58
2022/05/19 08:28:28;;;;;;;4.53;3.05;;;16.80;64.00;;;;;;1820376;79;21215;-57
2022/05/19 08:30:54;;;;;;;7.70;3.40;;;16.90;63.90;;;;;;1820424;78;21180;-57
2022/05/19 08:33:23;;;;;;;4.75;3.17;;;17.10;63.90;;;;;;1832769;77;21089;-59
2022/05/19 08:35:53;;;;;;;3.80;3.10;;;17.30;63.80;;;;;;1838099;77;21126;-59
2022/05/19 08:38:24;;;;;;;5.75;3.33;;;17.40;63.30;;;;;;1820482;79;21087;-59
2022/05/19 08:40:58;;;;;;;7.60;4.08;;;17.60;63.10;;;;;;1820608;79;21228;-57
2022/05/19 08:43:36;;;;;;;8.90;4.08;;;17.60;59.40;;;;;;1820330;77;21556;-57
2022/05/19 08:46:08;;;;;;;11.50;3.67;;;17.50;59.10;;;;;;1820112;78;21141;-59
2022/05/19 08:48:38;;;;;;;8.53;3.20;;;17.40;57.40;;;;;;1820582;78;21121;-57
2022/05/19 08:51:12;;;;;;;6.72;3.50;;;17.40;57.30;;;;;;1820363;79;21113;-58
2022/05/19 08:53:43;;;;;;;6.50;3.58;;;17.40;57.80;;;;;;1820861;79;21125;-57
2022/05/19 08:56:30;;;;;;;9.43;4.00;;;17.50;57.70;;;;;;1820505;79;21176;-58
2022/05/19 08:59:08;;;;;;;4.65;3.55;;;17.60;57.60;;;;;;1820399;78;21048;-57
2022/05/19 09:01:49;;;;;;;7.87;4.05;;;17.70;56.00;;;;;;1836237;77;21548;-58
2022/05/19 09:04:56;;;;;;;6.85;3.80;;;17.80;56.70;;;;;;1817545;77;21087;-61
2022/05/19 09:07:58;;;;;;;10.78;7.15;;;17.80;55.90;;;;;;1756166;82;21191;-57
2022/05/19 09:10:53;;;;;;;6.92;4.00;;;17.90;56.80;;;;;;1790626;80;21075;-57
2022/05/19 09:13:26;;;;;;;3.98;2.87;;;18.00;57.00;;;;;;1779863;79;21046;-58
2022/05/19 09:15:56;;;;;;;8.95;3.52;;;18.20;56.60;;;;;;1820290;77;21098;-60
2022/05/19 09:18:30;;;;;;;5.25;3.58;;;18.30;56.80;;;;;;1820276;78;21365;-57
2022/05/19 09:21:02;;;;;;;5.10;3.33;;;18.50;54.60;;;;;;1820067;77;21051;-59
2022/05/19 09:23:31;;;;;;;4.10;3.50;;;18.40;53.00;;;;;;1820664;79;21109;-59
2022/05/19 09:26:05;;;;;;;8.78;4.10;;;18.40;52.20;;;;;;1820261;79;21067;-59
2022/05/19 09:31:38;;;;;;;4.85;2.98;;;18.50;51.80;;;;;;1862055;76;20435;-59
2022/05/19 09:34:09;;;;;;;5.62;3.85;;;18.60;50.70;;;;;;1862186;77;21078;-57
2022/05/19 09:36:42;;;;;;;7.37;3.58;;;18.50;51.20;;;;;;1862119;77;21105;-57
2022/05/19 09:39:16;;;;;;;8.23;3.98;;;18.50;50.40;;;;;;1861133;77;21484;-56
2022/05/19 09:41:51;;;;;;;6.20;3.55;;;18.50;51.20;;;;;;1862092;77;21167;-57
2022/05/19 09:44:20;;;;;;;;;;;18.50;51.10;;;;;;1864842;76;21062;-57
2022/05/19 09:46:53;;;;;;;8.40;4.58;;;18.60;48.50;;;;;;1853278;77;20156;-57
2022/05/19 09:49:30;;;;;;;9.93;5.00;;;18.70;48.80;;;;;;1801518;78;21061;-58
2022/05/19 09:52:05;;;;;;;11.12;4.72;;;18.80;49.70;;;;;;1798689;80;21079;-57
2022/05/19 09:54:34;;;;;;;;;;;18.90;50.20;;;;;;1829879;78;21020;-57
2022/05/19 09:57:11;;;;;;;5.80;3.58;;;19.10;48.00;;;;;;1827235;77;20100;-57
2022/05/19 09:59:49;;;;;;;5.78;4.80;;;19.20;47.60;;;;;;1827009;78;21623;-57
2022/05/19 10:02:26;;;;;;;7.22;3.50;;;19.20;47.40;;;;;;1827239;78;21107;-57
2022/05/19 10:04:58;;;;;;;4.03;3.00;;;19.10;44.30;;;;;;1827079;78;21110;-56
2022/05/19 10:07:42;;;;;;;7.65;3.90;;;19.00;45.90;;;;;;1825640;78;21161;-58
2022/05/19 10:10:28;;;;;;;5.47;3.30;;;19.00;46.30;;;;;;1861762;76;21157;-58
2022/05/19 10:13:03;;;;;;;7.00;4.15;;;19.00;45.20;;;;;;1752768;77;21204;-58
2022/05/19 10:15:44;;;;;;;6.25;3.27;;;18.90;44.60;;;;;;1861586;76;21730;-58
2022/05/19 10:18:20;;;;;;;6.20;3.70;;;19.00;41.70;;;;;;1810021;79;21124;-57
2022/05/19 10:20:55;;;;;;;8.15;3.02;;;18.90;43.70;;;;;;1861962;77;21479;-59
2022/05/19 10:23:33;;;;;;;3.72;2.85;;;18.80;42.60;;;;;;1765516;78;21599;-57
2022/05/19 10:26:05;;;;;;;4.65;3.33;;;18.70;41.70;;;;;;1862155;77;21027;-60
2022/05/19 10:32:23;;;;;;;6.35;3.40;;;18.50;44.70;;;;;;1858870;76;21228;-60
2022/05/19 10:35:21;;;;;;;7.92;3.80;;;18.40;44.70;;;;;;1862138;76;21185;-58
2022/05/19 10:38:17;;;;;;;3.45;2.80;;;18.40;46.30;;;;;;1810212;78;21069;-62
2022/05/19 10:41:01;;;;;;;5.33;3.00;;;18.50;45.10;;;;;;1860120;77;21096;-63
2022/05/19 10:43:33;;;;;;;9.38;3.33;;;18.60;45.60;;;;;;1862220;76;20996;-61
2022/05/19 10:46:05;;;;;;;5.20;2.67;;;18.70;43.00;;;;;;1824742;77;21040;-58
2022/05/19 10:48:47;;;;;;;3.27;1.62;;;18.90;43.90;;;;;;1810641;79;21186;-59
2022/05/19 10:51:19;;;;;;;4.12;2.67;;;19.00;43.10;;;;;;1861837;76;21016;-58
2022/05/19 10:53:51;;;;;;;3.95;2.77;;;19.10;43.20;;;;;;1810383;79;21084;-58
2022/05/19 10:56:25;;;;;;;2.80;2.30;;;19.10;43.40;;;;;;1861999;76;21664;-58
2022/05/19 10:59:19;;;;;;;10.70;3.58;;;19.20;44.00;;;;;;1862060;76;21101;-62
2022/05/19 11:02:09;;;;;;;7.12;3.77;;;19.30;42.40;;;;;;1861728;77;21569;-60
2022/05/19 11:04:58;;;;;;;12.50;3.52;;;19.30;43.70;;;;;;1810275;79;21096;-61
2022/05/19 11:07:40;;;;;;;3.52;2.55;;;19.30;41.80;;;;;;1861930;76;21087;-59
2022/05/19 11:10:27;;;;;;;4.95;2.70;;;19.20;42.60;;;;;;1810029;78;21046;-58
2022/05/19 11:13:08;;;;;;;3.98;3.10;;;19.10;43.20;;;;;;1862398;76;21167;-60
2022/05/19 11:15:52;;;;;;;5.08;2.77;;;19.10;41.40;;;;;;1862334;77;21082;-59
2022/05/19 11:18:37;;;;;;;4.50;3.57;;;19.10;42.20;;;;;;1862560;76;21052;-58
2022/05/19 11:21:09;;;;;;;5.20;2.70;;;19.10;43.60;;;;;;1862949;76;21060;-58
2022/05/19 11:23:53;;;;;;;6.45;2.77;;;19.20;43.30;;;;;;1862995;76;21452;-58
2022/05/19 11:26:35;;;;;;;9.63;3.15;;;19.30;42.90;;;;;;1863011;76;21048;-58
2022/05/19 11:29:16;;;;;;;12.23;3.60;;;19.30;42.10;;;;;;1811138;79;21147;-58
2022/05/19 11:31:53;;;;;;;6.75;3.35;;;19.30;41.90;;;;;;1875995;75;21047;-58
2022/05/19 11:34:28;;;;;;;4.28;2.87;;;19.20;41.70;;;;;;1828360;78;21028;-58
2022/05/19 11:37:23;;;;;;;4.83;3.40;;;19.10;42.00;;;;;;1880837;76;21078;-58
2022/05/19 11:39:58;;;;;;;6.50;3.15;;;18.90;42.40;;;;;;1828481;78;21036;-58
2022/05/19 11:42:50;;;;;;;13.55;3.70;;;18.70;42.40;;;;;;1879788;76;21618;-58
2022/05/19 11:45:54;;;;;;;5.87;2.83;;;18.60;42.80;;;;;;1831518;78;21053;-59
2022/05/19 11:57:45;;;;;;;4.78;2.67;;;18.30;42.80;;;;;;1880534;76;21082;-58
2022/05/19 12:00:29;;;;;;;5.28;2.85;;;18.30;42.70;;;;;;1880550;75;21493;-59
2022/05/19 12:03:07;;;;;;;8.33;2.77;;;18.30;43.00;;;;;;1880083;75;21091;-59
2022/05/19 12:05:39;;;;;;;3.92;2.85;;;18.30;43.10;;;;;;1830054;76;21486;-59
2022/05/19 12:08:27;;;;;;;3.67;2.85;;;18.30;42.80;;;;;;1878554;76;21137;-59
2022/05/19 12:10:56;;;;;;;7.08;2.92;;;18.30;43.30;;;;;;1879221;76;21027;-59
2022/05/19 12:13:28;;;;;;;4.37;2.80;;;18.40;42.70;;;;;;1880785;76;21459;-59
2022/05/19 12:16:00;;;;;;;5.12;2.70;;;18.50;43.10;;;;;;1880658;76;21011;-59
2022/05/19 12:18:35;;;;;;;6.83;3.00;;;18.50;43.10;;;;;;1879958;76;21470;-59
2022/05/19 12:21:06;;;;;;;4.40;3.12;;;18.50;43.70;;;;;;1880918;76;21036;-59
2022/05/19 12:23:41;;;;;;;8.73;2.90;;;18.50;43.80;;;;;;1880799;76;21059;-59
2022/05/19 12:26:20;;;;;;;3.10;2.52;;;18.50;43.90;;;;;;1880767;75;21027;-59
2022/05/19 12:29:05;;;;;;;4.80;2.92;;;18.50;43.20;;;;;;1880813;75;21462;-59
2022/05/19 12:34:26;;;;;;;3.35;2.42;;;18.60;43.80;;;;;;1862830;77;21063;-59
2022/05/19 12:37:10;;;;;;;5.55;3.45;;;18.70;42.90;;;;;;1863027;77;21075;-59
2022/05/19 12:39:48;;;;;;;5.53;3.03;;;18.80;42.80;;;;;;1863237;76;21086;-59
2022/05/19 12:42:25;;;;;;;5.70;3.33;;;18.80;42.50;;;;;;1862680;76;21044;-59
2022/05/19 12:44:56;;;;;;;5.20;3.45;;;18.70;42.30;;;;;;1862961;77;21032;-59
2022/05/19 12:47:31;;;;;;;5.53;3.00;;;18.70;42.90;;;;;;1862933;76;21033;-59
2022/05/19 12:50:04;;;;;;;;;;;18.80;42.90;;;;;;1865815;77;21044;-59
2022/05/19 12:52:56;;;;;;;3.83;2.85;;;18.90;42.10;;;;;;1863208;77;20105;-59
2022/05/19 12:55:28;;;;;;;3.15;2.20;;;18.90;42.40;;;;;;1862975;76;21064;-59
2022/05/19 12:57:59;;;;;;;3.20;2.27;;;18.90;41.70;;;;;;1862919;76;21032;-59
2022/05/19 13:00:37;;;;;;;2.80;2.47;;;18.80;41.40;;;;;;1862888;77;21154;-59
2022/05/19 13:03:12;;;;;;;5.40;2.60;;;18.70;41.90;;;;;;1862916;76;21106;-58
2022/05/19 13:06:02;;;;;;;4.67;2.30;;;18.50;41.90;;;;;;1862973;76;21545;-58
2022/05/19 13:08:37;;;;;;;2.47;2.27;;;18.50;41.30;;;;;;1861864;76;21548;-58
2022/05/19 13:11:13;;;;;;;3.83;2.12;;;18.40;41.10;;;;;;1862776;77;21036;-58
2022/05/19 13:13:46;;;;;;;4.05;3.17;;;18.20;40.50;;;;;;1862782;76;21036;-58
2022/05/19 13:16:27;;;;;;;3.80;2.52;;;18.10;41.30;;;;;;1862911;76;21497;-58
2022/05/19 13:19:02;;;;;;;7.35;2.30;;;17.90;40.90;;;;;;1862955;77;21032;-58
2022/05/19 13:21:36;;;;;;;5.12;2.62;;;17.80;41.20;;;;;;1842108;76;21036;-57
2022/05/19 13:24:09;;;;;;;5.20;2.20;;;17.80;42.00;;;;;;1862903;77;21580;-58
2022/05/19 13:26:43;;;;;;;4.50;1.92;;;17.80;42.10;;;;;;1862837;76;21146;-58
2022/05/19 13:32:11;;;;;;;4.90;2.83;;;17.90;42.00;;;;;;1871385;76;21508;-58
2022/05/19 13:34:46;;;;;;;3.58;2.15;;;17.90;42.20;;;;;;1880706;75;21116;-58
2022/05/19 13:37:17;;;;;;;3.60;2.17;;;17.90;42.30;;;;;;1881049;76;21485;-58
2022/05/19 13:39:46;;;;;;;7.67;2.40;;;17.90;41.30;;;;;;1878417;75;21062;-58
2022/05/19 13:42:15;;;;;;;2.90;2.30;;;18.10;42.00;;;;;;1880910;75;21039;-58
2022/05/19 13:44:48;;;;;;;7.55;2.62;;;18.30;42.50;;;;;;1880907;76;21046;-58